createdAt,value
2023-01-18T00:00:39.691Z,96534.00
2023-01-18T00:03:20.450Z,96530.50
2023-01-18T00:05:47.320Z,96529.27
2023-01-18T00:08:15.971Z,96525.70
2023-01-18T00:10:43.327Z,96523.77
2023-01-18T00:13:11.703Z,96522.91
2023-01-18T00:15:41.165Z,96523.69
2023-01-18T00:18:08.210Z,96528.80
2023-01-18T00:20:35.266Z,96532.29
2023-01-18T00:23:02.265Z,96529.37
2023-01-18T00:25:29.964Z,96531.85
2023-01-18T00:27:56.991Z,96525.55
2023-01-18T00:30:27.125Z,96526.92
2023-01-18T00:32:56.762Z,96527.88
2023-01-18T00:35:25.046Z,96535.92
2023-01-18T00:37:53.240Z,96536.31
2023-01-18T00:40:21.784Z,96533.48
2023-01-18T00:43:08.024Z,96530.92
2023-01-18T00:45:35.026Z,96532.28
2023-01-18T00:48:03.113Z,96531.25
2023-01-18T00:50:30.066Z,96525.91
2023-01-18T00:52:58.450Z,96527.15
2023-01-18T00:55:26.111Z,96528.59
2023-01-18T00:57:53.297Z,96528.58
2023-01-18T01:00:26.123Z,96527.24
2023-01-18T01:02:53.767Z,96517.69
2023-01-18T01:05:42.776Z,96504.30
2023-01-18T01:08:16.318Z,96488.55
2023-01-18T01:10:47.418Z,96472.16
2023-01-18T01:13:35.619Z,96471.52
2023-01-18T01:16:26.905Z,96465.96
2023-01-18T01:19:13.896Z,96461.77
2023-01-18T01:21:59.409Z,96460.10
2023-01-18T01:24:44.925Z,96457.14
2023-01-18T01:27:13.295Z,96443.46
2023-01-18T01:29:40.364Z,96428.35
2023-01-18T01:32:07.364Z,96420.67
2023-01-18T01:34:35.486Z,96420.68
2023-01-18T01:37:03.626Z,96415.72
2023-01-18T01:39:30.960Z,96416.38
2023-01-18T01:41:57.985Z,96412.42
2023-01-18T01:44:27.607Z,96405.20
2023-01-18T01:47:10.889Z,96403.71
2023-01-18T01:49:49.012Z,96395.08
2023-01-18T01:52:21.564Z,96393.90
2023-01-18T01:54:57.589Z,96394.91
2023-01-18T01:57:31.185Z,96395.63
2023-01-18T02:00:02.049Z,96391.43
2023-01-18T02:02:42.136Z,96391.34
2023-01-18T02:05:13.016Z,96393.55
2023-01-18T02:07:40.151Z,96390.09
2023-01-18T02:10:08.041Z,96395.98
2023-01-18T02:12:38.288Z,96391.19
2023-01-18T02:15:07.124Z,96385.56
2023-01-18T02:17:46.269Z,96383.01
2023-01-18T02:20:37.368Z,96368.30
2023-01-18T02:23:33.452Z,96327.44
2023-01-18T02:26:25.628Z,96288.86
2023-01-18T02:29:04.333Z,96268.05
2023-01-18T02:31:40.152Z,96246.90
2023-01-18T02:34:18.843Z,96259.27
2023-01-18T02:36:59.387Z,96302.09
2023-01-18T02:40:02.498Z,96302.00
2023-01-18T02:42:49.240Z,96306.93
2023-01-18T02:45:58.894Z,96308.96
2023-01-18T02:48:33.145Z,96321.95
2023-01-18T02:51:00.164Z,96334.60
2023-01-18T02:53:27.863Z,96341.17
2023-01-18T02:56:03.161Z,96352.89
2023-01-18T02:58:42.583Z,96355.35
2023-01-18T03:01:26.103Z,96351.02
2023-01-18T03:03:58.675Z,96348.33
2023-01-18T03:06:29.658Z,96351.58
2023-01-18T03:08:59.095Z,96339.95
2023-01-18T03:11:38.110Z,96321.80
2023-01-18T03:14:23.525Z,96326.16
2023-01-18T03:16:57.862Z,96334.52
2023-01-18T03:19:58.586Z,96333.20
2023-01-18T03:22:47.121Z,96333.24
2023-01-18T03:25:19.623Z,96335.38
2023-01-18T03:28:09.619Z,96332.44
2023-01-18T03:30:57.973Z,96334.69
2023-01-18T03:33:48.202Z,96333.02
2023-01-18T03:36:21.424Z,96339.76
2023-01-18T03:38:55.570Z,96347.40
2023-01-18T03:41:26.366Z,96351.85
2023-01-18T03:43:57.658Z,96353.77
2023-01-18T03:46:28.607Z,96354.36
2023-01-18T03:48:56.372Z,96348.65
2023-01-18T03:51:36.716Z,96336.50
2023-01-18T03:54:22.219Z,96327.64
2023-01-18T03:57:00.210Z,96321.19
2023-01-18T03:59:33.423Z,96316.73
2023-01-18T04:02:02.369Z,96312.77
2023-01-18T04:04:29.570Z,96305.66
2023-01-18T04:06:57.471Z,96302.00
2023-01-18T04:09:25.880Z,96294.27
2023-01-18T04:11:53.160Z,96295.92
2023-01-18T04:14:20.245Z,96293.80
2023-01-18T04:16:47.196Z,96291.48
2023-01-18T04:19:14.109Z,96283.34
2023-01-18T04:21:41.032Z,96272.29
2023-01-18T04:24:08.138Z,96272.67
2023-01-18T04:26:35.146Z,96263.96
2023-01-18T04:29:02.888Z,96260.06
2023-01-18T04:31:30.454Z,96265.29
2023-01-18T04:33:57.541Z,96266.41
2023-01-18T04:36:24.576Z,96270.19
2023-01-18T04:38:53.680Z,96279.22
2023-01-18T04:41:21.388Z,96284.57
2023-01-18T04:43:48.378Z,96291.88
2023-01-18T04:46:15.763Z,96303.23
2023-01-18T04:48:42.819Z,96321.55
2023-01-18T04:51:13.931Z,96329.66
2023-01-18T04:53:42.849Z,96321.30
2023-01-18T04:56:10.795Z,96311.48
2023-01-18T04:58:38.252Z,96309.77
2023-01-18T05:01:08.404Z,96306.41
2023-01-18T05:03:37.675Z,96306.58
2023-01-18T05:06:10.056Z,96307.31
2023-01-18T05:08:40.522Z,96313.69
2023-01-18T05:11:12.341Z,96318.33
2023-01-18T05:13:40.820Z,96309.11
2023-01-18T05:16:14.045Z,96305.02
2023-01-18T05:18:42.795Z,96307.27
2023-01-18T05:21:09.884Z,96306.52
2023-01-18T05:23:38.421Z,96299.11
2023-01-18T05:26:13.963Z,96301.38
2023-01-18T05:28:42.011Z,96309.52
2023-01-18T05:31:09.091Z,96305.45
2023-01-18T05:33:36.153Z,96310.45
2023-01-18T05:36:04.115Z,96316.44
2023-01-18T05:38:31.121Z,96310.59
2023-01-18T05:40:58.612Z,96298.60
2023-01-18T05:43:27.767Z,96289.96
2023-01-18T05:45:55.273Z,96279.59
2023-01-18T05:48:22.417Z,96287.77
2023-01-18T05:50:49.376Z,96284.43
2023-01-18T05:53:18.920Z,96283.55
2023-01-18T05:56:00.793Z,96289.54
2023-01-18T05:58:28.650Z,96299.47
2023-01-18T06:00:58.085Z,96291.08
2023-01-18T06:03:25.822Z,96298.17
2023-01-18T06:05:53.206Z,96297.34
2023-01-18T06:08:20.797Z,96305.13
2023-01-18T06:10:56.163Z,96307.66
2023-01-18T06:13:24.682Z,96302.66
2023-01-18T06:15:54.175Z,96308.54
2023-01-18T06:18:22.707Z,96304.84
2023-01-18T06:21:01.688Z,96311.14
2023-01-18T06:23:31.510Z,96316.41
2023-01-18T06:25:59.049Z,96323.13
2023-01-18T06:28:28.043Z,96334.02
2023-01-18T06:30:59.203Z,96346.36
2023-01-18T06:33:27.639Z,96350.89
2023-01-18T06:35:55.063Z,96345.56
2023-01-18T06:38:22.161Z,96337.38
2023-01-18T06:40:49.304Z,96328.92
2023-01-18T06:43:16.357Z,96338.02
2023-01-18T06:45:43.488Z,96341.67
2023-01-18T06:48:13.419Z,96333.85
2023-01-18T06:50:40.551Z,96332.52
2023-01-18T06:53:07.721Z,96333.79
2023-01-18T06:55:34.916Z,96336.63
2023-01-18T06:58:05.311Z,96340.19
2023-01-18T07:00:33.829Z,96335.97
2023-01-18T07:03:10.206Z,96342.51
2023-01-18T07:05:37.473Z,96347.80
2023-01-18T07:08:04.706Z,96349.11
2023-01-18T07:10:31.827Z,96341.46
2023-01-18T07:12:59.174Z,96327.81
2023-01-18T07:15:26.771Z,96330.19
2023-01-18T07:17:53.933Z,96346.09
2023-01-18T07:20:25.922Z,96350.29
2023-01-18T07:22:53.119Z,96349.16
2023-01-18T07:25:22.972Z,96345.78
2023-01-18T07:27:50.792Z,96343.34
2023-01-18T07:30:18.418Z,96350.23
2023-01-18T07:32:51.457Z,96362.36
2023-01-18T07:35:24.218Z,96370.10
2023-01-18T07:37:53.462Z,96379.08
2023-01-18T07:40:25.617Z,96391.45
2023-01-18T07:42:58.161Z,96385.54
2023-01-18T07:45:25.883Z,96375.26
2023-01-18T07:47:56.121Z,96371.09
2023-01-18T07:50:23.313Z,96373.91
2023-01-18T07:52:53.156Z,96371.84
2023-01-18T07:55:21.405Z,96376.46
2023-01-18T07:57:50.028Z,96377.35
2023-01-18T08:00:18.694Z,96376.16
2023-01-18T08:03:04.459Z,96374.89
2023-01-18T08:05:39.845Z,96375.36
2023-01-18T08:08:12.619Z,96370.08
2023-01-18T08:10:40.752Z,96372.11
2023-01-18T08:13:10.305Z,96369.04
2023-01-18T08:15:39.025Z,96366.75
2023-01-18T08:18:09.112Z,96364.94
2023-01-18T08:20:36.333Z,96367.36
2023-01-18T08:23:04.371Z,96371.34
2023-01-18T08:25:33.165Z,96366.31
2023-01-18T08:28:02.890Z,96369.27
2023-01-18T08:30:36.576Z,96366.29
2023-01-18T08:33:05.414Z,96360.17
2023-01-18T08:35:35.341Z,96350.98
2023-01-18T08:38:02.647Z,96355.45
2023-01-18T08:40:30.099Z,96359.27
2023-01-18T08:43:02.205Z,96371.17
2023-01-18T08:45:30.334Z,96378.92
2023-01-18T08:48:02.065Z,96383.08
2023-01-18T08:50:31.642Z,96380.02
2023-01-18T08:53:02.543Z,96383.94
2023-01-18T08:55:31.169Z,96388.58
2023-01-18T08:57:58.508Z,96393.90
2023-01-18T09:00:28.104Z,96398.95
2023-01-18T09:02:56.421Z,96394.91
2023-01-18T09:05:27.511Z,96395.63
2023-01-18T09:07:56.043Z,96396.65
2023-01-18T09:10:26.208Z,96405.21
2023-01-18T09:12:55.182Z,96412.76
2023-01-18T09:15:22.274Z,96413.52
2023-01-18T09:17:49.472Z,96421.73
2023-01-18T09:20:19.631Z,96434.29
2023-01-18T09:22:47.265Z,96446.02
2023-01-18T09:25:17.531Z,96447.49
2023-01-18T09:27:46.127Z,96446.11
2023-01-18T09:30:16.294Z,96454.29
2023-01-18T09:32:43.513Z,96458.22
2023-01-18T09:35:10.533Z,96455.55
2023-01-18T09:37:40.366Z,96450.56
2023-01-18T09:40:33.797Z,96443.70
2023-01-18T09:43:01.205Z,96431.79
2023-01-18T09:45:32.674Z,96424.16
2023-01-18T09:48:07.048Z,96406.44
2023-01-18T09:50:42.229Z,96389.30
2023-01-18T09:53:20.182Z,96381.04
2023-01-18T09:55:53.643Z,96382.86
2023-01-18T09:58:35.182Z,96391.77
2023-01-18T10:01:13.181Z,96411.54
2023-01-18T10:03:51.943Z,96438.81
2023-01-18T10:06:30.743Z,96445.44
2023-01-18T10:09:05.438Z,96442.16
2023-01-18T10:12:06.616Z,96440.66
2023-01-18T10:14:45.885Z,96451.77
2023-01-18T10:17:22.512Z,96460.64
2023-01-18T10:19:50.120Z,96462.00
2023-01-18T10:22:20.574Z,96464.54
2023-01-18T10:25:04.323Z,96462.27
2023-01-18T10:27:45.119Z,96468.69
2023-01-18T10:30:46.949Z,96484.46
2023-01-18T10:33:20.918Z,96498.06
2023-01-18T10:36:02.616Z,96507.23
2023-01-18T10:38:31.319Z,96512.18
2023-01-18T10:41:02.831Z,96510.24
2023-01-18T10:43:36.751Z,96510.29
2023-01-18T10:46:16.064Z,96511.10
2023-01-18T10:48:49.891Z,96511.15
2023-01-18T10:51:29.898Z,96508.33
2023-01-18T10:53:59.232Z,96513.77
2023-01-18T10:56:27.919Z,96525.59
2023-01-18T10:59:00.443Z,96525.94
2023-01-18T11:01:34.053Z,96526.20
2023-01-18T11:04:19.992Z,96531.53
2023-01-18T11:06:55.967Z,96537.46
2023-01-18T11:09:55.056Z,96532.03
2023-01-18T11:12:37.552Z,96527.74
2023-01-18T11:15:15.601Z,96530.71
2023-01-18T11:18:02.553Z,96536.74
2023-01-18T11:20:33.595Z,96541.97
2023-01-18T11:23:25.924Z,96550.31
2023-01-18T11:26:02.479Z,96554.67
2023-01-18T11:28:52.199Z,96554.42
2023-01-18T11:31:22.549Z,96560.27
2023-01-18T11:33:57.512Z,96571.16
2023-01-18T11:36:41.546Z,96575.21
2023-01-18T11:39:26.299Z,96578.81
2023-01-18T11:42:27.700Z,96581.54
2023-01-18T11:44:58.031Z,96592.56
2023-01-18T11:47:51.107Z,96599.42
2023-01-18T11:50:34.897Z,96594.35
2023-01-18T11:53:24.497Z,96593.33
2023-01-18T11:56:06.140Z,96594.27
2023-01-18T11:58:35.983Z,96595.79
2023-01-18T12:01:37.351Z,96599.48
2023-01-18T12:04:25.789Z,96599.42
2023-01-18T12:06:58.180Z,96594.31
2023-01-18T12:09:46.547Z,96594.89
2023-01-18T12:12:20.067Z,96602.13
2023-01-18T12:15:07.357Z,96606.58
2023-01-18T12:18:15.570Z,96611.05
2023-01-18T12:20:58.786Z,96616.92
2023-01-18T12:23:32.083Z,96625.55
2023-01-18T12:26:44.640Z,96638.77
2023-01-18T12:29:44.457Z,96654.95
2023-01-18T12:32:40.699Z,96674.98
2023-01-18T12:35:34.454Z,96682.91
2023-01-18T12:38:22.550Z,96690.89
2023-01-18T12:41:06.871Z,96702.98
2023-01-18T12:43:37.987Z,96711.90
2023-01-18T12:46:26.455Z,96720.56
2023-01-18T12:49:20.979Z,96720.77
2023-01-18T12:52:13.035Z,96726.03
2023-01-18T12:55:00.620Z,96727.23
2023-01-18T12:57:29.271Z,96725.06
2023-01-18T13:00:08.568Z,96736.59
2023-01-18T13:02:43.946Z,96748.36
2023-01-18T13:05:34.715Z,96754.79
2023-01-18T13:08:14.283Z,96756.05
2023-01-18T13:10:42.418Z,96754.57
2023-01-18T13:13:27.468Z,96757.17
2023-01-18T13:16:12.942Z,96769.91
2023-01-18T13:18:43.769Z,96777.63
2023-01-18T13:21:32.677Z,96786.35
2023-01-18T13:24:41.958Z,96799.35
2023-01-18T13:27:14.996Z,96814.90
2023-01-18T13:29:43.874Z,96823.48
2023-01-18T13:32:43.230Z,96841.11
2023-01-18T13:35:20.592Z,96848.23
2023-01-18T13:37:55.637Z,96860.20
2023-01-18T13:40:51.357Z,96866.09
2023-01-18T13:43:31.507Z,96872.59
2023-01-18T13:46:07.470Z,96882.55
2023-01-18T13:48:53.758Z,96891.26
2023-01-18T13:51:41.385Z,96897.30
2023-01-18T13:54:17.043Z,96908.45
2023-01-18T13:57:05.163Z,96918.38
2023-01-18T13:59:35.698Z,96923.38
2023-01-18T14:02:22.058Z,96928.64
2023-01-18T14:05:03.068Z,96937.91
2023-01-18T14:07:43.607Z,96952.98
2023-01-18T14:10:33.661Z,96956.52
2023-01-18T14:13:07.032Z,96955.69
2023-01-18T14:15:46.922Z,96965.34
2023-01-18T14:18:24.543Z,96970.41
2023-01-18T14:20:59.996Z,96975.40
2023-01-18T14:23:43.294Z,96979.95
2023-01-18T14:26:19.011Z,96980.03
2023-01-18T14:29:11.714Z,96978.83
2023-01-18T14:31:50.824Z,96988.35
2023-01-18T14:34:30.164Z,96994.83
2023-01-18T14:36:59.138Z,96995.76
2023-01-18T14:39:28.275Z,96996.02
2023-01-18T14:42:05.611Z,97007.15
2023-01-18T14:44:56.826Z,97022.41
2023-01-18T14:47:32.426Z,97034.70
2023-01-18T14:50:03.666Z,97045.47
2023-01-18T14:52:36.352Z,97053.55
2023-01-18T14:55:05.233Z,97064.29
2023-01-18T14:57:32.161Z,97073.63
2023-01-18T15:00:15.659Z,97077.71
2023-01-18T15:02:43.669Z,97083.80
2023-01-18T15:05:17.207Z,97084.23
2023-01-18T15:07:55.427Z,97083.13
2023-01-18T15:10:24.153Z,97086.56
2023-01-18T15:12:57.484Z,97088.26
2023-01-18T15:15:29.855Z,97095.39
2023-01-18T15:18:05.373Z,97106.83
2023-01-18T15:20:33.519Z,97117.20
2023-01-18T15:23:00.795Z,97114.27
2023-01-18T15:25:32.845Z,97117.05
2023-01-18T15:28:14.760Z,97122.50
2023-01-18T15:30:54.138Z,97122.92
2023-01-18T15:33:24.856Z,97125.31
2023-01-18T15:36:00.503Z,97130.48
2023-01-18T15:38:34.365Z,97132.17
2023-01-18T15:41:05.927Z,97136.65
2023-01-18T15:43:51.224Z,97142.14
2023-01-18T15:46:18.561Z,97147.27
2023-01-18T15:49:04.742Z,97140.23
2023-01-18T15:51:50.508Z,97141.27
2023-01-18T15:54:20.432Z,97140.20
2023-01-18T15:56:48.331Z,97138.16
2023-01-18T15:59:23.334Z,97140.17
2023-01-18T16:02:18.461Z,97142.71
2023-01-18T16:04:45.943Z,97144.88
2023-01-18T16:07:37.739Z,97146.13
2023-01-18T16:10:30.383Z,97147.38
2023-01-18T16:13:30.177Z,97153.08
2023-01-18T16:16:18.733Z,97162.23
2023-01-18T16:19:03.346Z,97172.84
2023-01-18T16:21:41.340Z,97181.80
2023-01-18T16:24:30.028Z,97192.77
2023-01-18T16:27:06.580Z,97200.88
2023-01-18T16:29:47.169Z,97213.31
2023-01-18T16:32:28.969Z,97228.23
2023-01-18T16:35:03.134Z,97234.05
2023-01-18T16:37:30.071Z,97236.16
2023-01-18T16:39:57.178Z,97241.81
2023-01-18T16:42:36.910Z,97246.90
2023-01-18T16:45:12.630Z,97251.92
2023-01-18T16:47:39.619Z,97248.15
2023-01-18T16:50:15.954Z,97251.19
2023-01-18T16:52:43.497Z,97253.04
2023-01-18T16:55:17.551Z,97256.00
2023-01-18T16:57:45.506Z,97256.08
2023-01-18T17:00:17.361Z,97261.59
2023-01-18T17:02:44.753Z,97264.02
2023-01-18T17:05:13.522Z,97270.08
2023-01-18T17:07:40.564Z,97275.16
2023-01-18T17:10:30.620Z,97274.77
2023-01-18T17:12:59.607Z,97280.02
2023-01-18T17:15:30.137Z,97290.10
2023-01-18T17:17:57.305Z,97293.21
2023-01-18T17:20:26.591Z,97300.73
2023-01-18T17:22:55.093Z,97306.38
2023-01-18T17:25:23.561Z,97316.50
2023-01-18T17:27:50.559Z,97319.51
2023-01-18T17:30:20.729Z,97326.37
2023-01-18T17:32:48.362Z,97333.94
2023-01-18T17:35:22.180Z,97343.95
2023-01-18T17:37:54.455Z,97347.73
2023-01-18T17:40:39.370Z,97351.12
2023-01-18T17:43:32.044Z,97357.01
2023-01-18T17:46:05.060Z,97355.20
2023-01-18T17:48:32.297Z,97366.66
2023-01-18T17:50:59.256Z,97373.83
2023-01-18T17:53:26.814Z,97383.19
2023-01-18T17:55:53.687Z,97388.77
2023-01-18T17:58:20.586Z,97397.34
2023-01-18T18:00:47.597Z,97400.10
2023-01-18T18:03:14.777Z,97404.88
2023-01-18T18:05:41.976Z,97406.77
2023-01-18T18:08:09.020Z,97410.63
2023-01-18T18:10:35.929Z,97414.85
2023-01-18T18:13:03.449Z,97425.25
2023-01-18T18:15:30.750Z,97430.18
2023-01-18T18:17:58.105Z,97434.01
2023-01-18T18:20:25.061Z,97438.05
2023-01-18T18:22:52.090Z,97448.47
2023-01-18T18:25:19.087Z,97455.33
2023-01-18T18:27:47.269Z,97469.95
2023-01-18T18:30:17.363Z,97477.86
2023-01-18T18:32:46.330Z,97480.09
2023-01-18T18:35:25.351Z,97488.86
2023-01-18T18:37:55.099Z,97498.48
2023-01-18T18:40:24.125Z,97502.14
2023-01-18T18:43:01.287Z,97503.00
2023-01-18T18:45:32.943Z,97509.09
2023-01-18T18:48:00.596Z,97520.89
2023-01-18T18:50:28.593Z,97529.13
2023-01-18T18:52:57.831Z,97530.37
2023-01-18T18:55:27.208Z,97528.05
2023-01-18T18:57:54.179Z,97528.09
2023-01-18T19:00:21.459Z,97533.44
2023-01-18T19:02:49.825Z,97523.95
2023-01-18T19:05:16.915Z,97517.47
2023-01-18T19:07:46.677Z,97522.55
2023-01-18T19:10:14.408Z,97521.55
2023-01-18T19:12:41.323Z,97529.05
2023-01-18T19:15:09.095Z,97532.97
2023-01-18T19:17:37.273Z,97533.55
2023-01-18T19:20:05.182Z,97547.39
2023-01-18T19:22:32.290Z,97553.05
2023-01-18T19:24:59.209Z,97557.80
2023-01-18T19:27:26.743Z,97568.33
2023-01-18T19:29:56.638Z,97578.44
2023-01-18T19:32:24.143Z,97586.81
2023-01-18T19:35:19.774Z,97581.24
2023-01-18T19:37:47.957Z,97580.83
2023-01-18T19:40:15.998Z,97583.42
2023-01-18T19:42:44.071Z,97588.11
2023-01-18T19:45:19.724Z,97598.23
2023-01-18T19:48:01.583Z,97604.27
2023-01-18T19:50:30.080Z,97608.13
2023-01-18T19:52:58.109Z,97612.20
2023-01-18T19:55:25.503Z,97616.09
2023-01-18T19:57:55.284Z,97616.99
2023-01-18T20:00:22.577Z,97624.02
2023-01-18T20:02:50.998Z,97622.30
2023-01-18T20:05:18.568Z,97616.89
2023-01-18T20:07:46.000Z,97621.14
2023-01-18T20:10:13.135Z,97626.41
2023-01-18T20:12:43.074Z,97639.09
2023-01-18T20:15:10.362Z,97644.41
2023-01-18T20:17:38.193Z,97650.50
2023-01-18T20:20:05.712Z,97650.89
2023-01-18T20:22:32.618Z,97650.52
2023-01-18T20:24:59.579Z,97646.18
2023-01-18T20:27:29.925Z,97639.85
2023-01-18T20:29:57.695Z,97638.89
2023-01-18T20:32:24.813Z,97642.88
2023-01-18T20:34:51.880Z,97642.76
2023-01-18T20:37:22.311Z,97639.85
2023-01-18T20:39:49.890Z,97641.08
2023-01-18T20:42:17.616Z,97645.88
2023-01-18T20:44:48.779Z,97656.09
2023-01-18T20:47:16.003Z,97664.67
2023-01-18T20:49:44.531Z,97666.92
2023-01-18T20:52:11.476Z,97666.16
2023-01-18T20:54:38.446Z,97665.11
2023-01-18T20:57:06.034Z,97667.52
2023-01-18T20:59:34.470Z,97679.89
2023-01-18T21:02:02.543Z,97690.15
2023-01-18T21:04:29.739Z,97696.86
2023-01-18T21:06:56.796Z,97699.84
2023-01-18T21:09:25.213Z,97697.63
2023-01-18T21:11:52.262Z,97698.48
2023-01-18T21:14:19.236Z,97698.95
2023-01-18T21:16:46.628Z,97705.70
2023-01-18T21:19:13.793Z,97710.31
2023-01-18T21:21:40.870Z,97708.27
2023-01-18T21:24:07.921Z,97716.23
2023-01-18T21:26:35.955Z,97711.73
2023-01-18T21:29:05.571Z,97714.73
2023-01-18T21:31:32.632Z,97711.54
2023-01-18T21:34:04.087Z,97709.77
2023-01-18T21:36:31.046Z,97712.13
2023-01-18T21:38:57.972Z,97713.46
2023-01-18T21:41:43.712Z,97713.08
2023-01-18T21:44:30.027Z,97718.39
2023-01-18T21:46:58.527Z,97729.77
2023-01-18T21:50:11.296Z,97732.48
2023-01-18T21:52:49.700Z,97742.41
2023-01-18T21:55:17.327Z,97751.78
2023-01-18T21:57:44.696Z,97755.68
2023-01-18T22:00:12.129Z,97759.63
2023-01-18T22:02:39.172Z,97753.31
2023-01-18T22:05:08.131Z,97756.14
2023-01-18T22:07:35.182Z,97759.39
2023-01-18T22:10:07.329Z,97766.37
2023-01-18T22:12:36.218Z,97772.58
2023-01-18T22:15:04.669Z,97776.54
2023-01-18T22:17:31.661Z,97777.88
2023-01-18T22:19:59.353Z,97781.64
2023-01-18T22:22:26.485Z,97789.45
2023-01-18T22:24:53.538Z,97791.75
2023-01-18T22:27:20.582Z,97794.27
2023-01-18T22:29:47.518Z,97798.02
2023-01-18T22:32:14.509Z,97800.39
2023-01-18T22:34:41.496Z,97798.89
2023-01-18T22:37:08.495Z,97800.70
2023-01-18T22:39:35.340Z,97808.12
2023-01-18T22:42:02.369Z,97803.61
2023-01-18T22:44:29.384Z,97805.69
2023-01-18T22:46:56.403Z,97810.78
2023-01-18T22:49:23.410Z,97808.25
2023-01-18T22:51:50.318Z,97813.38
2023-01-18T22:54:21.924Z,97812.56
2023-01-18T22:56:49.047Z,97814.11
2023-01-18T22:59:16.102Z,97813.30
2023-01-18T23:01:43.055Z,97812.71
2023-01-18T23:04:10.075Z,97812.27
2023-01-18T23:06:48.383Z,97819.86
2023-01-18T23:09:17.018Z,97823.34
2023-01-18T23:11:44.824Z,97826.02
2023-01-18T23:14:30.536Z,97824.63
2023-01-18T23:17:16.507Z,97825.94
2023-01-18T23:19:43.523Z,97823.96
2023-01-18T23:22:10.661Z,97821.17
2023-01-18T23:24:38.942Z,97822.52
2023-01-18T23:27:09.230Z,97821.08
2023-01-18T23:29:36.649Z,97818.95
2023-01-18T23:32:04.050Z,97817.07
2023-01-18T23:34:30.937Z,97811.48
2023-01-18T23:36:57.988Z,97804.79
2023-01-18T23:39:43.347Z,97806.48
2023-01-18T23:42:29.276Z,97797.17
2023-01-18T23:45:15.094Z,97796.22
2023-01-18T23:48:01.240Z,97797.45
2023-01-18T23:50:47.059Z,97794.55
2023-01-18T23:53:32.955Z,97788.33
2023-01-18T23:55:59.864Z,97786.20
2023-01-18T23:58:27.367Z,97789.30
